Time;durP1;ratioP1;P1;durP2;ratioP2;P2;SDS_P1;SDS_P2;PMS_P1;PMS_P2;Temp;Humidity;BMP_temperature;BMP_pressure;BME280_temperature;BME280_humidity;BME280_pressure;Samples;Min_cycle;Max_cycle;Signal;HPM_P1;HPM_P2
2022/08/12 00:44:21;;;;;;;4.97;3.35;;;19.00;99.90;;;;;;5089962;27;20259;-67
2022/08/12 00:46:58;;;;;;;9.57;4.20;;;19.00;99.90;;;;;;5074866;27;20107;-67
2022/08/12 00:49:26;;;;;;;9.45;3.97;;;19.00;99.90;;;;;;5089164;27;20127;-67
2022/08/12 00:52:05;;;;;;;7.43;3.50;;;18.90;99.90;;;;;;5089573;27;20156;-68
2022/08/12 00:54:35;;;;;;;13.07;3.70;;;19.00;99.90;;;;;;5080589;27;20575;-68
2022/08/12 00:57:22;;;;;;;8.73;3.65;;;18.90;99.90;;;;;;5089342;27;20090;-68
2022/08/12 00:59:51;;;;;;;7.40;3.50;;;19.00;99.90;;;;;;5090212;27;20059;-69
2022/08/12 01:02:29;;;;;;;6.90;3.55;;;18.90;99.90;;;;;;5108495;27;20122;-68
2022/08/12 01:13:16;;;;;;;6.47;4.53;;;18.90;99.90;;;;;;5090927;27;20051;-68
2022/08/12 01:15:44;;;;;;;5.43;4.60;;;18.90;99.90;;;;;;5074535;27;20428;-68
2022/08/12 01:18:12;;;;;;;8.32;4.78;;;18.80;99.90;;;;;;5091499;27;20444;-68
2022/08/12 01:20:48;;;;;;;6.82;4.60;;;18.70;99.90;;;;;;5090916;27;20049;-68
2022/08/12 01:23:23;;;;;;;6.22;4.57;;;18.90;99.90;;;;;;5089732;27;20078;-68
2022/08/12 01:25:52;;;;;;;5.78;4.30;;;18.80;99.90;;;;;;5089494;27;20042;-69
2022/08/12 01:28:19;;;;;;;9.50;5.03;;;18.70;99.90;;;;;;5109150;27;20506;-68
2022/08/12 01:30:48;;;;;;;7.80;4.53;;;18.70;99.90;;;;;;5089885;27;20034;-68
2022/08/12 01:33:16;;;;;;;7.55;3.97;;;18.70;99.90;;;;;;5089691;27;20259;-68
2022/08/12 01:35:48;;;;;;;6.95;4.18;;;18.80;99.90;;;;;;5088758;27;20138;-68
2022/08/12 01:38:19;;;;;;;7.03;4.47;;;18.70;99.90;;;;;;5089356;27;20659;-68
2022/08/12 01:40:46;;;;;;;5.15;3.80;;;18.80;99.90;;;;;;5090423;27;20304;-67
2022/08/12 01:43:20;;;;;;;8.45;4.13;;;18.70;99.90;;;;;;5089989;28;20112;-68
2022/08/12 01:46:07;;;;;;;7.30;4.55;;;18.70;99.90;;;;;;5063867;28;20045;-68
2022/08/12 01:49:11;;;;;;;5.78;4.20;;;18.70;99.90;;;;;;5063098;27;20674;-68
2022/08/12 01:51:42;;;;;;;7.28;4.40;;;18.70;99.90;;;;;;5096087;27;20673;-68
2022/08/12 01:54:14;;;;;;;8.20;4.07;;;18.60;99.90;;;;;;5090416;27;20192;-68
2022/08/12 01:57:15;;;;;;;4.88;3.97;;;18.60;99.90;;;;;;5089460;28;20039;-68
2022/08/12 01:59:58;;;;;;;9.60;4.47;;;18.60;99.90;;;;;;5071116;28;20643;-68
2022/08/12 02:02:38;;;;;;;5.38;4.25;;;18.60;99.90;;;;;;5090391;28;20047;-68
2022/08/12 02:11:54;;;;;;;7.95;4.40;;;18.60;99.90;;;;;;5108123;28;20497;-68
2022/08/12 02:14:38;;;;;;;7.28;4.30;;;18.60;99.90;;;;;;5051653;28;20353;-68
2022/08/12 02:17:32;;;;;;;5.03;4.15;;;18.60;99.90;;;;;;5089780;28;20554;-68
2022/08/12 02:20:04;;;;;;;7.13;3.95;;;18.60;99.90;;;;;;5082725;28;20078;-68
2022/08/12 02:22:40;;;;;;;7.03;3.80;;;18.50;99.90;;;;;;5090076;28;20116;-68
2022/08/12 02:25:10;;;;;;;7.78;4.15;;;18.50;99.90;;;;;;5088647;28;20145;-69
2022/08/12 02:27:44;;;;;;;4.47;3.80;;;18.50;99.90;;;;;;5089842;28;20553;-69
2022/08/12 02:30:18;;;;;;;5.90;3.85;;;18.50;99.90;;;;;;5091131;28;20027;-68
2022/08/12 02:32:45;;;;;;;4.80;3.90;;;18.40;99.90;;;;;;5091413;28;20043;-68
2022/08/12 02:35:18;;;;;;;4.00;3.60;;;18.40;99.90;;;;;;5090373;27;20532;-70
2022/08/12 02:37:45;;;;;;;4.78;3.55;;;18.50;99.90;;;;;;5076381;27;20045;-68
2022/08/12 02:40:13;;;;;;;8.18;3.83;;;18.40;99.90;;;;;;5092119;27;20516;-68
2022/08/12 02:43:05;;;;;;;7.80;3.70;;;18.40;99.90;;;;;;5094853;27;20062;-68
2022/08/12 02:45:50;;;;;;;4.88;3.50;;;18.40;99.90;;;;;;5086055;27;20134;-69
2022/08/12 02:48:23;;;;;;;6.80;3.90;;;18.40;99.90;;;;;;5094073;27;20376;-69
2022/08/12 02:50:50;;;;;;;;;;;18.40;99.90;;;;;;5076807;27;20037;-68
2022/08/12 02:53:16;;;;;;;5.35;3.55;;;18.30;99.90;;;;;;5093409;27;20385;-69
2022/08/12 02:55:44;;;;;;;6.68;3.67;;;18.30;99.90;;;;;;5071073;27;20623;-68
2022/08/12 02:58:11;;;;;;;4.30;3.45;;;18.30;99.90;;;;;;5093426;27;20339;-68
2022/08/12 03:00:38;;;;;;;7.45;3.50;;;18.30;99.90;;;;;;5093856;27;20495;-67
2022/08/12 03:03:07;;;;;;;3.72;3.15;;;18.30;99.90;;;;;;5085106;27;20446;-67
2022/08/12 03:05:37;;;;;;;6.15;3.50;;;18.30;99.90;;;;;;5093132;27;20046;-68
2022/08/12 03:08:08;;;;;;;6.05;3.58;;;18.30;99.90;;;;;;5076508;27;20035;-68
2022/08/12 03:10:40;;;;;;;4.95;3.70;;;18.30;99.90;;;;;;5084684;27;20043;-67
2022/08/12 03:13:07;;;;;;;4.30;2.93;;;18.30;99.90;;;;;;5110622;27;20042;-69
2022/08/12 03:15:34;;;;;;;8.70;3.17;;;18.20;99.90;;;;;;5091862;27;20096;-67
2022/08/12 03:18:16;;;;;;;4.78;3.28;;;18.30;99.90;;;;;;5092612;27;20171;-68
2022/08/12 03:20:42;;;;;;;7.82;3.30;;;18.30;99.90;;;;;;5092047;27;20045;-68
2022/08/12 03:23:10;;;;;;;7.93;3.40;;;18.30;99.90;;;;;;5096074;27;20043;-68
2022/08/12 03:25:39;;;;;;;4.97;3.25;;;18.30;99.90;;;;;;5081339;27;20294;-69
2022/08/12 03:28:11;;;;;;;7.88;3.40;;;18.30;99.90;;;;;;5095717;27;20098;-68
2022/08/12 03:30:42;;;;;;;5.25;3.53;;;18.30;99.90;;;;;;5099024;27;20092;-68
2022/08/12 03:33:11;;;;;;;5.85;3.33;;;18.20;99.90;;;;;;5100166;27;20084;-68
2022/08/12 03:35:41;;;;;;;4.68;3.30;;;18.20;99.90;;;;;;5101230;27;20046;-67
2022/08/12 03:38:10;;;;;;;3.55;3.22;;;18.20;99.90;;;;;;5100188;27;20415;-68
2022/08/12 04:00:22;;;;;;;4.47;3.50;;;17.80;99.90;;;;;;5094768;27;20383;-69
2022/08/12 04:02:58;;;;;;;6.13;3.50;;;17.70;99.90;;;;;;5094663;27;20378;-69
2022/08/12 04:05:24;;;;;;;5.88;3.33;;;17.60;99.90;;;;;;5087150;27;20618;-69
2022/08/12 04:07:52;;;;;;;6.00;3.60;;;17.70;99.90;;;;;;5078424;27;20100;-69
2022/08/12 04:10:18;;;;;;;7.18;4.22;;;17.60;99.90;;;;;;5070402;27;20031;-69
2022/08/12 04:15:39;;;;;;;8.77;4.40;;;17.60;99.90;;;;;;5085085;27;20507;-69
2022/08/12 04:18:05;;;;;;;6.90;4.07;;;17.50;99.90;;;;;;5061464;27;20119;-69
2022/08/12 04:20:31;;;;;;;5.82;3.90;;;17.50;99.90;;;;;;5095274;27;20047;-69
2022/08/12 04:22:57;;;;;;;7.68;4.13;;;17.40;99.90;;;;;;5079169;27;20034;-68
2022/08/12 04:25:24;;;;;;;8.55;4.55;;;17.50;99.90;;;;;;5061297;27;20174;-68
2022/08/12 04:27:50;;;;;;;6.35;4.57;;;17.40;99.90;;;;;;5098739;27;20046;-68
2022/08/12 04:30:16;;;;;;;8.07;5.00;;;17.30;99.90;;;;;;5087640;27;20043;-68
2022/08/12 04:32:42;;;;;;;10.00;4.90;;;17.30;99.90;;;;;;5072336;27;20123;-68
2022/08/12 04:35:08;;;;;;;7.40;4.63;;;17.40;99.90;;;;;;5094478;27;20397;-68
2022/08/12 04:37:34;;;;;;;5.82;4.63;;;17.40;99.90;;;;;;5094268;27;20047;-68
2022/08/12 04:40:01;;;;;;;5.75;4.80;;;17.40;99.90;;;;;;5077094;27;20039;-68
2022/08/12 04:42:27;;;;;;;8.00;4.20;;;17.50;99.90;;;;;;5111225;27;20284;-68
2022/08/12 04:44:53;;;;;;;6.13;4.13;;;17.50;99.90;;;;;;5093247;27;20051;-68
2022/08/12 04:47:20;;;;;;;6.63;4.03;;;17.50;99.90;;;;;;5077386;27;21292;-68
2022/08/12 04:49:47;;;;;;;5.60;4.13;;;17.60;99.90;;;;;;5093547;27;20373;-68
2022/08/12 04:52:13;;;;;;;6.72;4.35;;;17.60;99.90;;;;;;5093666;27;20054;-68
2022/08/12 04:54:39;;;;;;;6.70;4.00;;;17.60;99.90;;;;;;5075589;27;20035;-68
2022/08/12 04:57:08;;;;;;;7.05;4.85;;;17.60;99.90;;;;;;5093456;27;20073;-68
2022/08/12 04:59:34;;;;;;;5.43;4.22;;;17.70;99.90;;;;;;5074843;27;20103;-68
2022/08/12 05:02:01;;;;;;;7.63;4.40;;;17.60;99.90;;;;;;5076223;27;20070;-68
2022/08/12 05:04:27;;;;;;;7.40;4.35;;;17.70;99.90;;;;;;5064155;27;20320;-68
2022/08/12 05:06:53;;;;;;;7.28;4.70;;;17.70;99.90;;;;;;5059174;27;20410;-68
2022/08/12 05:09:19;;;;;;;6.25;5.00;;;17.70;99.90;;;;;;5092269;27;20038;-68
2022/08/12 05:11:51;;;;;;;8.95;4.53;;;17.70;99.90;;;;;;5076015;27;20031;-68
2022/08/12 05:14:17;;;;;;;5.57;4.35;;;17.70;99.90;;;;;;5077331;27;20053;-68
2022/08/12 05:16:43;;;;;;;5.45;4.30;;;17.80;99.90;;;;;;5093989;27;20047;-68
2022/08/12 05:19:08;;;;;;;4.78;3.63;;;17.70;99.90;;;;;;5093095;27;20416;-68
2022/08/12 05:21:34;;;;;;;6.30;3.92;;;17.80;99.90;;;;;;5091838;27;20044;-68
2022/08/12 05:24:00;;;;;;;6.95;3.47;;;17.90;99.90;;;;;;5041760;27;20103;-68
2022/08/12 05:26:28;;;;;;;7.35;3.72;;;17.90;99.90;;;;;;5077208;27;20039;-68
2022/08/12 05:28:53;;;;;;;5.38;3.88;;;17.90;99.90;;;;;;5075072;27;20122;-68
2022/08/12 05:31:21;;;;;;;6.00;4.13;;;18.00;99.90;;;;;;5091585;28;20040;-68
2022/08/12 05:33:46;;;;;;;6.00;4.05;;;18.10;99.90;;;;;;5093832;27;21098;-68
2022/08/12 05:36:14;;;;;;;7.22;4.30;;;18.10;99.90;;;;;;5091066;27;20133;-68
2022/08/12 05:38:56;;;;;;;7.07;4.07;;;18.10;99.90;;;;;;5091692;27;20035;-68
2022/08/12 05:41:31;;;;;;;6.15;3.53;;;18.30;99.90;;;;;;5069464;27;20238;-68
2022/08/12 05:44:04;;;;;;;6.50;3.78;;;18.70;99.90;;;;;;5074911;27;20116;-68
2022/08/12 05:46:31;;;;;;;7.18;3.65;;;19.10;99.90;;;;;;5084772;27;20035;-68
2022/08/12 05:48:59;;;;;;;4.75;3.30;;;19.50;99.90;;;;;;5093278;28;20617;-68
2022/08/12 05:51:27;;;;;;;5.80;3.00;;;19.80;99.90;;;;;;5093550;27;20043;-68
2022/08/12 05:53:54;;;;;;;4.55;3.08;;;20.00;99.90;;;;;;5075706;27;20042;-69
2022/08/12 05:56:22;;;;;;;4.10;3.22;;;20.20;99.90;;;;;;5091950;28;20038;-68
2022/08/12 05:58:50;;;;;;;6.75;3.47;;;20.40;99.90;;;;;;5074528;28;20066;-68
2022/08/12 06:01:16;;;;;;;6.85;3.30;;;20.40;99.90;;;;;;5075855;28;20055;-68
2022/08/12 06:03:42;;;;;;;6.63;3.22;;;20.60;99.90;;;;;;5066241;28;20066;-68
2022/08/12 06:06:09;;;;;;;7.90;3.13;;;20.80;99.90;;;;;;5091035;28;20043;-67
2022/08/12 06:08:35;;;;;;;5.32;2.75;;;20.90;99.90;;;;;;5090590;28;20057;-67
2022/08/12 06:11:05;;;;;;;5.03;3.25;;;21.10;99.90;;;;;;5071788;27;20039;-67
2022/08/12 06:13:38;;;;;;;3.90;2.80;;;21.20;99.90;;;;;;5077241;27;20071;-67
2022/08/12 06:16:08;;;;;;;3.17;2.60;;;21.40;99.90;;;;;;5094121;27;20066;-67
2022/08/12 06:18:34;;;;;;;4.35;2.38;;;21.50;99.90;;;;;;5077475;27;20048;-68
2022/08/12 06:21:00;;;;;;;6.82;2.58;;;21.70;99.90;;;;;;5075754;27;20050;-68
2022/08/12 06:23:27;;;;;;;5.68;2.90;;;21.80;99.90;;;;;;5112416;27;20103;-68
2022/08/12 06:25:57;;;;;;;6.30;2.42;;;21.90;99.90;;;;;;5056388;27;20513;-68
2022/08/12 06:28:23;;;;;;;6.70;2.65;;;22.10;99.90;;;;;;5095217;27;20783;-68
2022/08/12 06:30:50;;;;;;;3.38;2.70;;;22.20;99.90;;;;;;5093656;27;20137;-68
2022/08/12 06:33:20;;;;;;;4.47;2.70;;;22.20;99.90;;;;;;5093561;27;20079;-69
2022/08/12 06:35:48;;;;;;;5.45;2.47;;;22.30;99.90;;;;;;5077170;27;20035;-68
2022/08/12 06:38:15;;;;;;;5.60;2.50;;;22.40;99.90;;;;;;5095599;27;20042;-68
2022/08/12 06:43:26;;;;;;;4.60;2.30;;;22.70;99.90;;;;;;5080486;27;20035;-67
2022/08/12 06:45:52;;;;;;;5.60;2.60;;;22.70;99.90;;;;;;5093706;27;20493;-69
2022/08/12 06:48:18;;;;;;;4.60;2.53;;;22.90;99.90;;;;;;5098613;27;20042;-67
2022/08/12 06:50:48;;;;;;;6.72;2.65;;;23.00;99.90;;;;;;5082050;27;20043;-68
2022/08/12 06:53:16;;;;;;;3.55;2.20;;;23.10;99.90;;;;;;5081928;27;20084;-68
2022/08/12 06:55:42;;;;;;;5.45;2.35;;;23.20;99.90;;;;;;5081942;27;20051;-68
2022/08/12 06:58:08;;;;;;;6.10;2.22;;;23.20;99.90;;;;;;5077613;27;20092;-68
2022/08/12 07:00:34;;;;;;;4.63;2.33;;;23.20;99.90;;;;;;5079412;27;20051;-68
2022/08/12 07:03:02;;;;;;;7.95;2.50;;;23.30;99.90;;;;;;5046000;27;20159;-68
2022/08/12 07:05:28;;;;;;;6.60;2.35;;;23.30;99.90;;;;;;5079135;27;20509;-68
2022/08/12 07:08:04;;;;;;;6.78;2.10;;;23.40;99.90;;;;;;5096927;27;20122;-69
2022/08/12 07:10:31;;;;;;;6.18;1.85;;;23.40;99.90;;;;;;5096442;27;20177;-69
2022/08/12 07:12:59;;;;;;;6.38;2.42;;;23.40;99.90;;;;;;5079776;27;20048;-69
2022/08/12 07:15:25;;;;;;;5.50;1.88;;;23.50;99.90;;;;;;5097299;27;20660;-69
2022/08/12 07:17:58;;;;;;;3.88;2.15;;;23.60;99.90;;;;;;5078532;27;20043;-69
2022/08/12 07:20:28;;;;;;;6.13;2.13;;;23.70;99.90;;;;;;5096566;27;20130;-69
2022/08/12 07:22:55;;;;;;;6.78;1.80;;;23.70;99.90;;;;;;5097440;27;20039;-69
2022/08/12 07:25:30;;;;;;;3.72;1.45;;;23.90;99.90;;;;;;5078808;27;20272;-69
2022/08/12 07:28:00;;;;;;;2.80;1.70;;;24.10;99.90;;;;;;5079387;27;20052;-69
2022/08/12 07:30:26;;;;;;;7.82;1.85;;;24.30;99.90;;;;;;5078807;27;20552;-69
2022/08/12 07:32:53;;;;;;;8.35;2.03;;;24.40;99.90;;;;;;5062542;27;20089;-69
2022/08/12 07:35:19;;;;;;;3.80;1.48;;;24.40;99.90;;;;;;5063791;27;20514;-68
2022/08/12 07:37:49;;;;;;;2.83;1.40;;;24.60;99.90;;;;;;5096833;27;20070;-70
2022/08/12 07:40:15;;;;;;;3.35;1.38;;;24.80;99.90;;;;;;5095041;27;20179;-69
2022/08/12 07:42:42;;;;;;;4.53;1.60;;;24.70;99.90;;;;;;5078369;27;20071;-68
2022/08/12 07:45:09;;;;;;;3.95;1.67;;;24.70;99.90;;;;;;5092267;27;20267;-68
2022/08/12 07:47:35;;;;;;;7.18;1.38;;;24.80;99.90;;;;;;5074644;27;20039;-69
2022/08/12 07:50:03;;;;;;;3.60;1.40;;;24.90;99.90;;;;;;5075442;27;20305;-69
2022/08/12 07:52:29;;;;;;;6.03;1.40;;;24.90;99.90;;;;;;5093573;27;20305;-69
2022/08/12 07:54:55;;;;;;;4.65;1.38;;;25.20;99.90;;;;;;5073639;27;20210;-69
2022/08/12 07:57:21;;;;;;;4.53;1.48;;;25.20;99.90;;;;;;5094217;27;20051;-69
2022/08/12 07:59:47;;;;;;;6.65;1.70;;;25.40;99.90;;;;;;5094463;27;20357;-69
2022/08/12 08:02:32;;;;;;;6.13;1.60;;;25.60;99.90;;;;;;5092722;27;20050;-69
2022/08/12 08:04:59;;;;;;;5.50;1.30;;;25.90;99.90;;;;;;5118096;27;20038;-69
2022/08/12 08:07:28;;;;;;;5.35;1.80;;;25.90;99.90;;;;;;5079736;27;21332;-69
2022/08/12 08:09:58;;;;;;;6.38;1.58;;;26.20;99.90;;;;;;5084937;27;20042;-70
2022/08/12 08:15:10;;;;;;;4.97;1.50;;;26.30;99.90;;;;;;5098600;27;20043;-69
2022/08/12 08:17:37;;;;;;;4.57;2.28;;;26.30;99.90;;;;;;5072605;27;20057;-70
2022/08/12 08:20:04;;;;;;;6.10;2.10;;;26.30;99.90;;;;;;5079584;27;20116;-69
2022/08/12 08:22:33;;;;;;;9.25;2.20;;;26.20;99.90;;;;;;5074224;27;20043;-70
2022/08/12 08:24:59;;;;;;;4.55;2.00;;;26.40;99.90;;;;;;5076476;27;20074;-69
2022/08/12 08:27:25;;;;;;;5.72;2.85;;;26.50;99.90;;;;;;5095113;27;20044;-69
2022/08/12 08:29:51;;;;;;;6.72;3.55;;;26.40;99.90;;;;;;5080732;27;20038;-69
2022/08/12 08:32:16;;;;;;;8.68;2.00;;;26.40;99.90;;;;;;5076719;27;21193;-69
2022/08/12 08:34:44;;;;;;;5.15;1.30;;;26.30;99.90;;;;;;5093824;27;20043;-68
2022/08/12 08:37:14;;;;;;;4.13;1.30;;;26.40;99.90;;;;;;5097359;27;20051;-69
2022/08/12 08:39:40;;;;;;;3.35;1.23;;;26.40;99.90;;;;;;5096106;27;20587;-69
2022/08/12 08:44:50;;;;;;;4.53;1.27;;;26.50;99.90;;;;;;5083926;27;20130;-69
2022/08/12 08:47:16;;;;;;;3.53;1.05;;;26.70;99.90;;;;;;5097354;27;20042;-70
2022/08/12 08:49:42;;;;;;;4.85;0.85;;;26.90;99.90;;;;;;5083470;27;20062;-69
2022/08/12 08:52:10;;;;;;;4.40;2.33;;;27.10;99.90;;;;;;5097970;27;20100;-68
2022/08/12 08:54:36;;;;;;;3.55;1.20;;;27.20;99.90;;;;;;5098393;27;20785;-68
2022/08/12 08:57:04;;;;;;;4.75;1.40;;;27.30;99.90;;;;;;5098475;27;20046;-68
2022/08/12 08:59:30;;;;;;;5.78;1.30;;;27.40;99.90;;;;;;5074664;27;20108;-69
2022/08/12 09:01:56;;;;;;;3.78;1.25;;;27.40;99.90;;;;;;5078598;27;20130;-69
2022/08/12 09:04:25;;;;;;;2.75;1.20;;;27.50;99.90;;;;;;5078494;27;20043;-69
2022/08/12 09:06:55;;;;;;;3.95;1.58;;;27.40;99.90;;;;;;5097557;27;20647;-69
2022/08/12 09:09:22;;;;;;;3.63;1.42;;;27.70;99.90;;;;;;5084284;27;20633;-69
2022/08/12 09:14:32;;;;;;;3.08;1.42;;;28.00;99.90;;;;;;5079899;28;20035;-69
2022/08/12 09:16:58;;;;;;;8.00;1.50;;;28.20;99.90;;;;;;5061112;28;20046;-71
2022/08/12 09:19:25;;;;;;;3.50;1.15;;;28.30;99.90;;;;;;5063227;28;20529;-69
2022/08/12 09:21:52;;;;;;;3.95;2.10;;;28.70;99.90;;;;;;5077759;28;20104;-69
2022/08/12 09:24:20;;;;;;;5.40;1.80;;;29.00;99.90;;;;;;5060403;28;20043;-69
2022/08/12 09:26:47;;;;;;;6.15;1.75;;;29.20;99.90;;;;;;5061744;28;20132;-69
2022/08/12 09:29:20;;;;;;;5.40;1.77;;;29.50;99.90;;;;;;5058904;28;20092;-71
2022/08/12 09:31:47;;;;;;;4.28;1.67;;;29.40;99.90;;;;;;5058731;28;20031;-69
2022/08/12 09:34:13;;;;;;;4.82;1.80;;;29.40;99.90;;;;;;5076728;28;20059;-69
2022/08/12 09:36:40;;;;;;;3.65;1.90;;;29.50;99.90;;;;;;5077111;28;20039;-70
2022/08/12 09:39:07;;;;;;;8.60;2.13;;;29.70;99.90;;;;;;5059883;28;20126;-69
2022/08/12 09:41:40;;;;;;;7.32;1.90;;;29.50;99.90;;;;;;5078133;28;20508;-68
2022/08/12 09:46:52;;;;;;;6.82;2.20;;;29.00;99.90;;;;;;5077675;28;20516;-67
2022/08/12 09:49:18;;;;;;;4.53;2.00;;;29.50;99.90;;;;;;5074910;28;20100;-68
2022/08/12 09:51:46;;;;;;;3.05;1.50;;;29.80;99.90;;;;;;5048580;28;20039;-68
2022/08/12 09:54:13;;;;;;;6.65;2.10;;;29.50;99.90;;;;;;5067684;28;20464;-68
2022/08/12 09:56:40;;;;;;;6.20;2.20;;;29.70;99.90;;;;;;5056423;28;20035;-68
2022/08/12 09:59:08;;;;;;;7.43;2.03;;;29.80;99.90;;;;;;5089400;28;20047;-68
2022/08/12 10:01:38;;;;;;;6.38;2.20;;;29.90;99.90;;;;;;5052637;28;20189;-70
2022/08/12 10:04:09;;;;;;;3.72;1.70;;;30.10;99.90;;;;;;5053923;28;20035;-69
2022/08/12 10:06:38;;;;;;;4.85;1.50;;;29.90;99.90;;;;;;5038149;28;20513;-69
2022/08/12 10:09:09;;;;;;;4.53;1.17;;;30.00;99.90;;;;;;5070391;28;20031;-70
2022/08/12 10:14:20;;;;;;;3.72;1.80;;;30.10;99.90;;;;;;5069895;28;20051;-68
2022/08/12 10:16:46;;;;;;;5.60;1.73;;;30.30;99.90;;;;;;5053628;28;20607;-68
2022/08/12 10:19:14;;;;;;;3.95;1.70;;;30.40;99.90;;;;;;5051637;28;20080;-68
2022/08/12 10:21:41;;;;;;;5.03;1.90;;;30.00;99.90;;;;;;5070830;28;20609;-69
2022/08/12 10:24:07;;;;;;;4.10;1.83;;;29.80;99.90;;;;;;5053599;28;20040;-69
2022/08/12 10:32:05;;;;;;;4.80;1.77;;;30.60;99.90;;;;;;5045999;28;20054;-66
2022/08/12 10:34:35;;;;;;;3.17;1.20;;;31.00;99.90;;;;;;5056280;28;20079;-69
2022/08/12 10:37:12;;;;;;;4.85;2.58;;;30.90;99.90;;;;;;5082810;28;20069;-68
2022/08/12 10:39:41;;;;;;;4.80;1.92;;;31.00;99.90;;;;;;5049696;28;20086;-68
2022/08/12 10:44:59;;;;;;;4.18;1.25;;;31.20;99.90;;;;;;5076160;28;20135;-69
2022/08/12 10:47:29;;;;;;;3.65;1.25;;;30.60;99.90;;;;;;5060493;28;20046;-70
2022/08/12 10:49:55;;;;;;;3.08;1.20;;;30.80;99.90;;;;;;5060943;28;20095;-67
2022/08/12 10:52:24;;;;;;;3.63;0.90;;;31.00;99.90;;;;;;5078516;28;20721;-68
2022/08/12 10:54:50;;;;;;;3.42;1.00;;;31.30;99.90;;;;;;5061256;28;20054;-67
2022/08/12 10:57:17;;;;;;;4.78;0.95;;;31.40;99.90;;;;;;5045820;28;20055;-68
2022/08/12 10:59:44;;;;;;;3.65;0.80;;;31.70;99.90;;;;;;5080781;28;20137;-67
2022/08/12 11:02:14;;;;;;;4.65;0.95;;;31.30;99.90;;;;;;5080038;28;20441;-68
2022/08/12 11:04:41;;;;;;;4.13;0.63;;;31.30;99.90;;;;;;5059765;28;20217;-67
2022/08/12 11:07:08;;;;;;;4.40;0.95;;;31.50;99.90;;;;;;5077112;28;20039;-67
2022/08/12 11:09:36;;;;;;;3.47;0.68;;;31.80;99.90;;;;;;5077154;28;20493;-68
2022/08/12 11:12:05;;;;;;;3.90;0.60;;;31.90;99.90;;;;;;5059191;28;20315;-68
2022/08/12 11:14:32;;;;;;;4.90;0.57;;;32.00;99.90;;;;;;5077076;28;20097;-68
2022/08/12 11:17:00;;;;;;;4.72;0.70;;;32.10;99.90;;;;;;5076679;28;20047;-67
2022/08/12 11:19:27;;;;;;;3.03;0.50;;;32.20;99.90;;;;;;5060134;28;20399;-68
2022/08/12 11:21:54;;;;;;;3.75;0.65;;;32.60;99.90;;;;;;5075764;28;20107;-69
2022/08/12 11:24:20;;;;;;;3.00;0.70;;;32.40;99.90;;;;;;5059743;28;20122;-68
2022/08/12 11:26:48;;;;;;;4.38;0.60;;;32.50;99.90;;;;;;5060178;28;20436;-69
2022/08/12 11:29:15;;;;;;;7.75;0.60;;;32.60;99.90;;;;;;5026078;28;20616;-69
2022/08/12 11:31:41;;;;;;;4.55;0.60;;;32.60;99.90;;;;;;5059252;28;20044;-69
2022/08/12 11:34:07;;;;;;;2.25;0.50;;;32.40;99.90;;;;;;5075138;28;20120;-68
2022/08/12 11:36:33;;;;;;;3.25;0.52;;;32.30;99.90;;;;;;5059337;28;20108;-68
2022/08/12 11:38:58;;;;;;;10.30;0.70;;;32.30;99.90;;;;;;5059075;28;20727;-68
2022/08/12 11:41:24;;;;;;;3.05;0.60;;;32.30;99.90;;;;;;5077061;28;20048;-69
2022/08/12 11:43:50;;;;;;;2.63;0.57;;;32.40;99.90;;;;;;5058684;28;20579;-68
2022/08/12 11:46:18;;;;;;;4.05;0.70;;;32.40;99.90;;;;;;5042452;28;20043;-69
2022/08/12 11:48:46;;;;;;;7.38;0.80;;;32.20;99.90;;;;;;5058108;28;20163;-69
2022/08/12 11:51:12;;;;;;;3.65;0.80;;;32.10;99.90;;;;;;5059581;28;20200;-69
2022/08/12 11:53:38;;;;;;;5.93;0.80;;;32.10;99.90;;;;;;5073842;28;20039;-69
2022/08/12 11:56:05;;;;;;;3.75;0.70;;;31.90;99.90;;;;;;5074952;28;20040;-69
2022/08/12 11:58:31;;;;;;;5.00;0.77;;;31.80;99.90;;;;;;5075442;28;20059;-69
2022/08/12 12:00:57;;;;;;;9.00;0.95;;;31.50;99.90;;;;;;5057741;28;20397;-69
2022/08/12 12:03:24;;;;;;;2.72;0.77;;;31.60;99.90;;;;;;5073759;28;20206;-69
2022/08/12 12:05:50;;;;;;;6.47;0.80;;;31.80;99.90;;;;;;5057471;28;20032;-68
2022/08/12 12:08:23;;;;;;;4.18;0.68;;;31.40;99.90;;;;;;5057645;28;20039;-69
2022/08/12 12:10:50;;;;;;;5.25;0.80;;;31.40;99.90;;;;;;5041844;28;20074;-69
2022/08/12 12:13:17;;;;;;;4.78;0.73;;;31.40;99.90;;;;;;5073142;28;20041;-69
2022/08/12 12:15:43;;;;;;;23.08;2.53;;;31.20;99.90;;;;;;5074947;28;20227;-69
2022/08/12 12:18:23;;;;;;;4.57;0.70;;;30.90;99.90;;;;;;5057614;28;20461;-69
2022/08/12 12:20:49;;;;;;;4.03;0.80;;;31.20;99.90;;;;;;5075354;28;20555;-69
2022/08/12 12:23:14;;;;;;;4.07;0.90;;;31.30;99.90;;;;;;5074144;28;20044;-69
2022/08/12 12:25:40;;;;;;;78.75;10.85;;;31.30;99.90;;;;;;5056519;28;20085;-69
2022/08/12 12:28:06;;;;;;;66.63;10.25;;;31.40;99.90;;;;;;5057044;28;20038;-69
2022/08/12 12:30:35;;;;;;;7.78;1.17;;;31.50;99.90;;;;;;5073976;28;20036;-69
2022/08/12 12:33:01;;;;;;;5.80;1.08;;;31.60;99.90;;;;;;5023508;28;20039;-70
2022/08/12 12:35:27;;;;;;;6.53;0.77;;;31.90;99.90;;;;;;5039636;28;20261;-69
2022/08/12 12:38:01;;;;;;;4.43;0.90;;;31.80;99.90;;;;;;5039632;28;20039;-69
2022/08/12 12:40:29;;;;;;;4.20;0.77;;;32.10;99.90;;;;;;5092753;28;20047;-69
2022/08/12 12:42:55;;;;;;;5.30;0.73;;;32.00;99.90;;;;;;5074102;28;20266;-69
2022/08/12 12:45:21;;;;;;;3.33;0.70;;;31.90;99.90;;;;;;5074010;28;20623;-69
2022/08/12 12:47:57;;;;;;;5.07;0.70;;;32.20;99.90;;;;;;5029416;28;20257;-70
2022/08/12 12:50:31;;;;;;;4.45;0.60;;;32.40;99.90;;;;;;5054460;28;20540;-69
2022/08/12 12:52:57;;;;;;;6.85;0.57;;;32.20;99.90;;;;;;5090795;28;20139;-70
2022/08/12 12:55:23;;;;;;;2.97;0.85;;;32.30;99.90;;;;;;5072968;28;20031;-70
2022/08/12 12:57:49;;;;;;;4.22;1.35;;;32.50;99.50;;;;;;5055611;28;20374;-69
2022/08/12 13:00:17;;;;;;;3.10;0.80;;;32.60;99.20;;;;;;5057363;28;20130;-69
2022/08/12 13:02:51;;;;;;;3.13;0.70;;;32.50;98.00;;;;;;5073903;28;20122;-70
2022/08/12 13:05:35;;;;;;;4.43;0.60;;;32.60;97.70;;;;;;5071187;28;20460;-70
2022/08/12 13:08:20;;;;;;;3.67;0.57;;;33.10;96.10;;;;;;5073909;28;20147;-70
2022/08/12 13:10:48;;;;;;;6.05;1.15;;;33.10;95.40;;;;;;5056513;28;20039;-69
2022/08/12 13:13:16;;;;;;;2.90;0.60;;;33.00;95.70;;;;;;5040038;28;20691;-70
2022/08/12 13:15:41;;;;;;;5.85;1.00;;;33.00;96.10;;;;;;5054613;28;20693;-69
2022/08/12 13:18:07;;;;;;;4.82;0.52;;;33.00;95.80;;;;;;5037829;28;20169;-70
2022/08/12 13:20:33;;;;;;;5.10;0.77;;;33.10;94.90;;;;;;5055233;28;20070;-69
2022/08/12 13:22:58;;;;;;;5.97;0.80;;;33.60;93.80;;;;;;5072096;28;20458;-68
2022/08/12 13:25:26;;;;;;;5.35;0.60;;;33.80;92.40;;;;;;5037899;28;20546;-70
2022/08/12 13:27:52;;;;;;;6.57;0.60;;;33.90;93.00;;;;;;5054593;28;20043;-69
2022/08/12 13:30:22;;;;;;;3.97;0.68;;;34.20;91.50;;;;;;5071701;28;20031;-69
2022/08/12 13:33:01;;;;;;;3.25;0.75;;;33.80;90.90;;;;;;5027854;28;20050;-70
2022/08/12 13:35:32;;;;;;;5.55;0.65;;;33.70;90.90;;;;;;5054977;28;20153;-70
2022/08/12 13:37:59;;;;;;;6.03;0.60;;;33.70;90.80;;;;;;5057165;27;20054;-70
2022/08/12 13:40:27;;;;;;;6.57;0.73;;;33.50;91.90;;;;;;5073874;27;20046;-70
2022/08/12 13:42:57;;;;;;;6.68;0.70;;;33.90;88.40;;;;;;5090858;27;20263;-71
2022/08/12 13:45:24;;;;;;;5.40;0.60;;;34.00;88.30;;;;;;5075012;27;20039;-70
2022/08/12 13:47:57;;;;;;;4.90;0.80;;;34.00;90.00;;;;;;5074501;28;20031;-68
2022/08/12 13:50:31;;;;;;;4.88;0.70;;;34.20;88.80;;;;;;5067795;27;20130;-67
2022/08/12 13:52:59;;;;;;;5.13;0.60;;;34.70;85.70;;;;;;5091830;28;20102;-68
2022/08/12 13:55:25;;;;;;;3.33;0.73;;;34.50;85.80;;;;;;5073522;28;20082;-68
2022/08/12 13:57:52;;;;;;;3.83;0.50;;;34.60;85.80;;;;;;5057708;27;20513;-68
2022/08/12 14:00:18;;;;;;;3.97;0.55;;;34.60;83.50;;;;;;5092788;28;20055;-68
2022/08/12 14:02:44;;;;;;;3.17;0.60;;;34.90;81.60;;;;;;5093186;28;20051;-69
2022/08/12 14:05:10;;;;;;;4.45;0.65;;;34.90;80.20;;;;;;5074765;28;20039;-69
2022/08/12 14:08:10;;;;;;;4.25;0.88;;;34.70;81.50;;;;;;5066019;28;20237;-70
2022/08/12 14:10:38;;;;;;;2.90;0.73;;;34.80;83.00;;;;;;5091482;28;20280;-68
2022/08/12 14:13:07;;;;;;;5.50;0.80;;;35.00;82.50;;;;;;5091400;28;20031;-68
2022/08/12 14:15:34;;;;;;;4.28;0.82;;;35.10;83.40;;;;;;5092621;28;20039;-69
2022/08/12 14:18:16;;;;;;;4.22;0.60;;;35.10;82.00;;;;;;5074650;28;20050;-69
2022/08/12 14:20:44;;;;;;;5.40;0.70;;;35.00;80.70;;;;;;5090944;28;20047;-68
2022/08/12 14:23:12;;;;;;;7.80;1.20;;;35.30;81.40;;;;;;5073669;28;20031;-70
2022/08/12 14:25:39;;;;;;;3.47;0.80;;;35.10;79.30;;;;;;5074306;28;20775;-70
2022/08/12 14:28:14;;;;;;;5.22;0.70;;;35.20;77.30;;;;;;5060444;28;20039;-68
2022/08/12 14:30:45;;;;;;;5.20;0.60;;;35.30;78.60;;;;;;5091591;28;20146;-68
2022/08/12 14:33:14;;;;;;;2.60;0.43;;;35.40;75.00;;;;;;5091833;27;20339;-68
2022/08/12 14:35:43;;;;;;;5.97;0.70;;;35.50;71.50;;;;;;5088464;27;20554;-68
2022/08/12 14:38:39;;;;;;;4.28;0.57;;;35.50;67.80;;;;;;5078492;27;20039;-69
2022/08/12 14:41:08;;;;;;;2.38;0.50;;;34.90;73.10;;;;;;5074026;27;20311;-69
2022/08/12 14:43:36;;;;;;;2.63;0.50;;;35.20;70.20;;;;;;5097259;27;20058;-70